sensor_id;sensor_type;location;lat;lon;timestamp;pressure;altitude;pressure_sealevel;temperature;humidity
53916;BME280;39827;49.652;18.770;2023-08-24T00:01:15;73415.84;;;-149.71;77.25
53916;BME280;39827;49.652;18.770;2023-08-24T00:03:44;73433.94;;;-149.71;78.30
53916;BME280;39827;49.652;18.770;2023-08-24T00:06:11;73448.00;;;-149.71;78.46
53916;BME280;39827;49.652;18.770;2023-08-24T00:08:37;73427.91;;;-149.71;77.91
53916;BME280;39827;49.652;18.770;2023-08-24T00:11:03;73421.88;;;-149.71;77.13
53916;BME280;39827;49.652;18.770;2023-08-24T00:13:29;73423.88;;;-149.71;76.79
53916;BME280;39827;49.652;18.770;2023-08-24T00:15:55;73419.88;;;-149.71;76.83
53916;BME280;39827;49.652;18.770;2023-08-24T00:18:21;73437.94;;;-149.71;77.04
53916;BME280;39827;49.652;18.770;2023-08-24T00:20:49;73435.94;;;-149.71;77.62
53916;BME280;39827;49.652;18.770;2023-08-24T00:23:14;73429.91;;;-149.71;77.81
53916;BME280;39827;49.652;18.770;2023-08-24T00:25:40;73439.97;;;-149.71;77.67
53916;BME280;39827;49.652;18.770;2023-08-24T00:28:08;73431.91;;;-149.71;77.50
53916;BME280;39827;49.652;18.770;2023-08-24T00:30:36;73454.00;;;-149.71;77.99
53916;BME280;39827;49.652;18.770;2023-08-24T00:33:02;73468.06;;;-149.71;78.47
53916;BME280;39827;49.652;18.770;2023-08-24T00:35:28;73464.06;;;-149.71;78.13
53916;BME280;39827;49.652;18.770;2023-08-24T00:37:53;73476.13;;;-149.71;78.94
53916;BME280;39827;49.652;18.770;2023-08-24T00:40:19;73474.09;;;-149.71;78.82
53916;BME280;39827;49.652;18.770;2023-08-24T00:42:45;73452.00;;;-149.71;78.42
53916;BME280;39827;49.652;18.770;2023-08-24T00:45:12;73454.00;;;-149.71;78.19
53916;BME280;39827;49.652;18.770;2023-08-24T00:47:42;73443.97;;;-149.71;77.75
53916;BME280;39827;49.652;18.770;2023-08-24T00:50:10;73468.06;;;-149.71;79.11
53916;BME280;39827;49.652;18.770;2023-08-24T00:52:37;73443.97;;;-149.71;77.85
53916;BME280;39827;49.652;18.770;2023-08-24T00:55:05;73472.09;;;-149.71;78.57
53916;BME280;39827;49.652;18.770;2023-08-24T00:57:32;73476.13;;;-149.71;78.63
53916;BME280;39827;49.652;18.770;2023-08-24T00:59:59;73460.03;;;-149.71;78.31
53916;BME280;39827;49.652;18.770;2023-08-24T01:02:24;73500.22;;;-149.71;79.37
53916;BME280;39827;49.652;18.770;2023-08-24T01:04:50;73504.22;;;-149.71;79.42
53916;BME280;39827;49.652;18.770;2023-08-24T01:07:17;73496.19;;;-149.71;79.54
53916;BME280;39827;49.652;18.770;2023-08-24T01:09:43;73514.28;;;-149.71;79.64
53916;BME280;39827;49.652;18.770;2023-08-24T01:12:20;73492.19;;;-149.71;79.51
53916;BME280;39827;49.652;18.770;2023-08-24T01:15:15;73472.09;;;-149.71;79.22
53916;BME280;39827;49.652;18.770;2023-08-24T01:17:44;73486.16;;;-149.71;79.09
53916;BME280;39827;49.652;18.770;2023-08-24T01:20:13;73484.16;;;-149.71;79.16
53916;BME280;39827;49.652;18.770;2023-08-24T01:23:28;73476.13;;;-149.71;79.02
53916;BME280;39827;49.652;18.770;2023-08-24T01:25:53;73484.16;;;-149.71;79.25
53916;BME280;39827;49.652;18.770;2023-08-24T01:28:20;73480.13;;;-149.71;79.28
53916;BME280;39827;49.652;18.770;2023-08-24T01:30:47;73496.19;;;-149.71;79.61
53916;BME280;39827;49.652;18.770;2023-08-24T01:33:13;73494.19;;;-149.71;79.73
53916;BME280;39827;49.652;18.770;2023-08-24T01:35:39;73476.13;;;-149.71;79.68
53916;BME280;39827;49.652;18.770;2023-08-24T01:38:05;73470.09;;;-149.71;79.54
53916;BME280;39827;49.652;18.770;2023-08-24T01:40:39;73450.00;;;-149.71;78.30
53916;BME280;39827;49.652;18.770;2023-08-24T01:43:07;73441.97;;;-149.71;78.44
53916;BME280;39827;49.652;18.770;2023-08-24T01:45:35;73478.13;;;-149.71;79.67
53916;BME280;39827;49.652;18.770;2023-08-24T01:48:03;73470.09;;;-149.71;79.29
53916;BME280;39827;49.652;18.770;2023-08-24T01:50:30;73486.16;;;-149.71;79.67
53916;BME280;39827;49.652;18.770;2023-08-24T01:52:57;73480.13;;;-149.71;79.67
53916;BME280;39827;49.652;18.770;2023-08-24T01:55:23;73504.22;;;-149.71;80.26
53916;BME280;39827;49.652;18.770;2023-08-24T01:57:48;73506.25;;;-149.71;80.24
53916;BME280;39827;49.652;18.770;2023-08-24T02:00:14;73490.19;;;-149.71;79.74
53916;BME280;39827;49.652;18.770;2023-08-24T02:02:42;73508.25;;;-149.71;80.02
53916;BME280;39827;49.652;18.770;2023-08-24T02:05:07;73508.25;;;-149.71;80.34
53916;BME280;39827;49.652;18.770;2023-08-24T02:07:33;73478.13;;;-149.71;78.93
53916;BME280;39827;49.652;18.770;2023-08-24T02:09:58;73472.09;;;-149.71;78.78
53916;BME280;39827;49.652;18.770;2023-08-24T02:12:24;73476.13;;;-149.71;78.67
53916;BME280;39827;49.652;18.770;2023-08-24T02:14:49;73488.16;;;-149.71;78.72
53916;BME280;39827;49.652;18.770;2023-08-24T02:17:15;73512.28;;;-149.71;79.16
53916;BME280;39827;49.652;18.770;2023-08-24T02:19:40;73496.19;;;-149.71;78.53
53916;BME280;39827;49.652;18.770;2023-08-24T02:22:08;73510.25;;;-149.71;79.38
53916;BME280;39827;49.652;18.770;2023-08-24T02:24:34;73488.16;;;-149.71;78.19
53916;BME280;39827;49.652;18.770;2023-08-24T02:27:00;73506.25;;;-149.71;78.69
53916;BME280;39827;49.652;18.770;2023-08-24T02:29:25;73520.31;;;-149.71;79.14
53916;BME280;39827;49.652;18.770;2023-08-24T02:31:51;73508.25;;;-149.71;78.60
53916;BME280;39827;49.652;18.770;2023-08-24T02:34:17;73532.34;;;-149.71;79.54
53916;BME280;39827;49.652;18.770;2023-08-24T02:36:42;73532.34;;;-149.71;79.05
53916;BME280;39827;49.652;18.770;2023-08-24T02:39:08;73512.28;;;-149.71;78.81
53916;BME280;39827;49.652;18.770;2023-08-24T02:41:34;73506.25;;;-149.71;78.71
53916;BME280;39827;49.652;18.770;2023-08-24T02:44:00;73524.31;;;-149.71;78.44
53916;BME280;39827;49.652;18.770;2023-08-24T02:46:25;73532.34;;;-149.71;79.40
53916;BME280;39827;49.652;18.770;2023-08-24T02:48:50;73544.41;;;-149.71;80.08
53916;BME280;39827;49.652;18.770;2023-08-24T02:51:16;73532.34;;;-149.71;80.03
53916;BME280;39827;49.652;18.770;2023-08-24T02:53:41;73522.31;;;-149.71;79.53
53916;BME280;39827;49.652;18.770;2023-08-24T02:56:07;73534.38;;;-149.71;79.80
53916;BME280;39827;49.652;18.770;2023-08-24T02:58:32;73530.34;;;-149.71;79.36
53916;BME280;39827;49.652;18.770;2023-08-24T03:00:57;73536.38;;;-149.71;79.53
53916;BME280;39827;49.652;18.770;2023-08-24T03:03:24;73536.38;;;-149.71;79.64
53916;BME280;39827;49.652;18.770;2023-08-24T03:05:58;73500.22;;;-149.71;78.78
53916;BME280;39827;49.652;18.770;2023-08-24T03:08:24;73524.31;;;-149.71;78.89
53916;BME280;39827;49.652;18.770;2023-08-24T03:10:49;73532.34;;;-149.71;78.92
53916;BME280;39827;49.652;18.770;2023-08-24T03:13:15;73512.28;;;-149.71;78.06
53916;BME280;39827;49.652;18.770;2023-08-24T03:15:40;73538.38;;;-149.71;78.66
53916;BME280;39827;49.652;18.770;2023-08-24T03:18:06;73520.31;;;-149.71;78.31
53916;BME280;39827;49.652;18.770;2023-08-24T03:20:31;73514.28;;;-149.71;77.78
53916;BME280;39827;49.652;18.770;2023-08-24T03:22:57;73524.31;;;-149.71;77.80
53916;BME280;39827;49.652;18.770;2023-08-24T03:25:23;73526.34;;;-149.71;78.01
53916;BME280;39827;49.652;18.770;2023-08-24T03:27:48;73536.38;;;-149.71;78.59
53916;BME280;39827;49.652;18.770;2023-08-24T03:30:14;73532.34;;;-149.71;78.69
53916;BME280;39827;49.652;18.770;2023-08-24T03:32:40;73536.38;;;-149.71;78.30
53916;BME280;39827;49.652;18.770;2023-08-24T03:35:06;73538.38;;;-149.71;78.57
53916;BME280;39827;49.652;18.770;2023-08-24T03:37:32;73540.41;;;-149.71;78.55
53916;BME280;39827;49.652;18.770;2023-08-24T03:39:57;73540.41;;;-149.71;78.51
53916;BME280;39827;49.652;18.770;2023-08-24T03:42:23;73552.44;;;-149.71;78.49
53916;BME280;39827;49.652;18.770;2023-08-24T03:44:48;73560.47;;;-149.71;78.66
53916;BME280;39827;49.652;18.770;2023-08-24T03:47:14;73570.53;;;-149.71;78.61
53916;BME280;39827;49.652;18.770;2023-08-24T03:49:42;73558.47;;;-149.71;78.54
53916;BME280;39827;49.652;18.770;2023-08-24T03:52:08;73568.50;;;-149.71;79.16
53916;BME280;39827;49.652;18.770;2023-08-24T03:54:33;73556.47;;;-149.71;78.84
53916;BME280;39827;49.652;18.770;2023-08-24T03:56:58;73580.56;;;-149.71;78.91
53916;BME280;39827;49.652;18.770;2023-08-24T03:59:24;73588.59;;;-149.71;78.63
53916;BME280;39827;49.652;18.770;2023-08-24T04:01:49;73608.69;;;-149.71;79.00
53916;BME280;39827;49.652;18.770;2023-08-24T04:04:15;73618.72;;;-149.71;79.00
53916;BME280;39827;49.652;18.770;2023-08-24T04:06:40;73594.63;;;-149.71;78.28
53916;BME280;39827;49.652;18.770;2023-08-24T04:09:05;73608.69;;;-149.71;78.55
53916;BME280;39827;49.652;18.770;2023-08-24T04:11:31;73588.59;;;-149.71;77.77
53916;BME280;39827;49.652;18.770;2023-08-24T04:13:57;73604.69;;;-149.71;77.52
53916;BME280;39827;49.652;18.770;2023-08-24T04:16:22;73590.63;;;-149.71;77.40
53916;BME280;39827;49.652;18.770;2023-08-24T04:18:48;73606.69;;;-149.71;77.59
53916;BME280;39827;49.652;18.770;2023-08-24T04:21:13;73588.59;;;-149.71;77.25
53916;BME280;39827;49.652;18.770;2023-08-24T04:23:39;73584.59;;;-149.71;76.87
53916;BME280;39827;49.652;18.770;2023-08-24T04:26:10;73592.63;;;-149.71;76.38
53916;BME280;39827;49.652;18.770;2023-08-24T04:28:36;73594.63;;;-149.71;76.48
53916;BME280;39827;49.652;18.770;2023-08-24T04:31:01;73612.72;;;-149.71;77.50
53916;BME280;39827;49.652;18.770;2023-08-24T04:33:26;73622.75;;;-149.71;77.75
53916;BME280;39827;49.652;18.770;2023-08-24T04:35:52;73616.72;;;-149.71;77.51
53916;BME280;39827;49.652;18.770;2023-08-24T04:38:17;73596.63;;;-149.71;76.66
53916;BME280;39827;49.652;18.770;2023-08-24T04:43:12;73582.56;;;-149.71;76.17
53916;BME280;39827;49.652;18.770;2023-08-24T04:45:37;73598.66;;;-149.71;76.16
53916;BME280;39827;49.652;18.770;2023-08-24T04:48:03;73600.66;;;-149.71;76.90
53916;BME280;39827;49.652;18.770;2023-08-24T04:50:28;73592.63;;;-149.71;76.24
53916;BME280;39827;49.652;18.770;2023-08-24T04:52:54;73592.63;;;-149.71;76.20
53916;BME280;39827;49.652;18.770;2023-08-24T04:55:19;73606.69;;;-149.71;76.97
53916;BME280;39827;49.652;18.770;2023-08-24T04:57:45;73606.69;;;-149.71;76.91
53916;BME280;39827;49.652;18.770;2023-08-24T05:00:10;73590.63;;;-149.71;76.36
53916;BME280;39827;49.652;18.770;2023-08-24T05:02:41;73556.47;;;-149.71;75.82
53916;BME280;39827;49.652;18.770;2023-08-24T05:05:08;73542.41;;;-149.71;75.12
53916;BME280;39827;49.652;18.770;2023-08-24T05:07:35;73576.56;;;-149.71;75.40
53916;BME280;39827;49.652;18.770;2023-08-24T05:10:00;73590.63;;;-149.71;75.75
53916;BME280;39827;49.652;18.770;2023-08-24T05:12:26;73596.63;;;-149.71;75.98
53916;BME280;39827;49.652;18.770;2023-08-24T05:14:51;73568.50;;;-149.71;75.37
53916;BME280;39827;49.652;18.770;2023-08-24T05:17:16;73578.56;;;-149.71;75.37
53916;BME280;39827;49.652;18.770;2023-08-24T05:19:42;73576.56;;;-149.71;75.70
53916;BME280;39827;49.652;18.770;2023-08-24T05:22:07;73572.53;;;-149.71;75.69
53916;BME280;39827;49.652;18.770;2023-08-24T05:24:33;73558.47;;;-149.71;75.22
53916;BME280;39827;49.652;18.770;2023-08-24T05:26:58;73578.56;;;-149.71;75.63
53916;BME280;39827;49.652;18.770;2023-08-24T05:29:23;73556.47;;;-149.71;75.21
53916;BME280;39827;49.652;18.770;2023-08-24T05:31:49;73542.41;;;-149.71;75.31
53916;BME280;39827;49.652;18.770;2023-08-24T05:34:14;73528.34;;;-149.71;75.12
53916;BME280;39827;49.652;18.770;2023-08-24T05:36:39;73550.44;;;-149.71;76.85
53916;BME280;39827;49.652;18.770;2023-08-24T05:39:05;73514.28;;;-149.71;76.37
53916;BME280;39827;49.652;18.770;2023-08-24T05:41:30;73512.28;;;-149.71;76.96
53916;BME280;39827;49.652;18.770;2023-08-24T05:43:56;73472.09;;;-149.71;76.33
53916;BME280;39827;49.652;18.770;2023-08-24T05:46:22;73353.59;;;-149.71;72.24
53916;BME280;39827;49.652;18.770;2023-08-24T05:48:47;73255.16;;;-149.71;67.76
53916;BME280;39827;49.652;18.770;2023-08-24T05:51:13;73192.88;;;-149.71;66.28
53916;BME280;39827;49.652;18.770;2023-08-24T05:53:39;73182.84;;;-149.71;65.79
53916;BME280;39827;49.652;18.770;2023-08-24T05:56:06;73120.59;;;-149.71;63.26
53916;BME280;39827;49.652;18.770;2023-08-24T05:58:31;73100.50;;;-149.71;63.46
53916;BME280;39827;49.652;18.770;2023-08-24T06:01:00;73178.84;;;-149.71;66.23
53916;BME280;39827;49.652;18.770;2023-08-24T06:03:26;73196.91;;;-149.71;66.13
53916;BME280;39827;49.652;18.770;2023-08-24T06:05:51;73138.66;;;-149.71;60.97
53916;BME280;39827;49.652;18.770;2023-08-24T06:08:17;73038.22;;;-149.71;61.75
53916;BME280;39827;49.652;18.770;2023-08-24T06:10:42;72992.03;;;-149.71;60.60
53916;BME280;39827;49.652;18.770;2023-08-24T06:13:08;72951.88;;;-149.71;56.94
53916;BME280;39827;49.652;18.770;2023-08-24T06:15:34;72901.66;;;-149.71;55.63
53916;BME280;39827;49.652;18.770;2023-08-24T06:17:59;72867.50;;;-149.71;52.50
53916;BME280;39827;49.652;18.770;2023-08-24T06:20:25;72793.19;;;-149.71;50.75
53916;BME280;39827;49.652;18.770;2023-08-24T06:22:50;72791.19;;;-149.71;51.49
53916;BME280;39827;49.652;18.770;2023-08-24T06:25:16;72757.03;;;-149.71;50.12
53916;BME280;39827;49.652;18.770;2023-08-24T06:27:41;72662.66;;;-149.71;48.71
53916;BME280;39827;49.652;18.770;2023-08-24T06:30:07;72660.66;;;-149.71;48.13
53916;BME280;39827;49.652;18.770;2023-08-24T06:32:32;72632.53;;;-149.71;46.63
53916;BME280;39827;49.652;18.770;2023-08-24T06:34:58;72568.25;;;-149.71;46.99
53916;BME280;39827;49.652;18.770;2023-08-24T06:37:24;72510.03;;;-149.71;46.83
53916;BME280;39827;49.652;18.770;2023-08-24T06:39:50;72564.25;;;-149.71;46.17
53916;BME280;39827;49.652;18.770;2023-08-24T06:42:15;72469.84;;;-149.71;44.52
53916;BME280;39827;49.652;18.770;2023-08-24T06:44:41;72447.78;;;-149.71;44.20
53916;BME280;39827;49.652;18.770;2023-08-24T06:47:06;72399.56;;;-149.71;42.05
53916;BME280;39827;49.652;18.770;2023-08-24T06:49:31;72331.28;;;-149.71;42.07
53916;BME280;39827;49.652;18.770;2023-08-24T06:51:57;72287.13;;;-149.71;43.00
53916;BME280;39827;49.652;18.770;2023-08-24T06:54:22;72254.97;;;-149.71;41.43
53916;BME280;39827;49.652;18.770;2023-08-24T06:56:48;72257.00;;;-149.71;39.68
53916;BME280;39827;49.652;18.770;2023-08-24T06:59:13;72236.91;;;-149.71;38.83
53916;BME280;39827;49.652;18.770;2023-08-24T07:01:39;72212.81;;;-149.71;38.84
53916;BME280;39827;49.652;18.770;2023-08-24T07:04:06;72170.66;;;-149.71;38.40
53916;BME280;39827;49.652;18.770;2023-08-24T07:06:33;72156.59;;;-149.71;39.07
53916;BME280;39827;49.652;18.770;2023-08-24T07:09:00;72170.66;;;-149.71;38.68
53916;BME280;39827;49.652;18.770;2023-08-24T07:11:25;72184.69;;;-149.71;38.50
53916;BME280;39827;49.652;18.770;2023-08-24T07:13:51;72168.63;;;-149.71;37.24
53916;BME280;39827;49.652;18.770;2023-08-24T07:16:19;72142.53;;;-149.71;36.98
53916;BME280;39827;49.652;18.770;2023-08-24T07:18:44;72124.47;;;-149.71;37.78
53916;BME280;39827;49.652;18.770;2023-08-24T07:21:09;72092.31;;;-149.71;37.21
53916;BME280;39827;49.652;18.770;2023-08-24T07:23:35;72082.28;;;-149.71;36.79
53916;BME280;39827;49.652;18.770;2023-08-24T07:26:00;72084.28;;;-149.71;35.42
53916;BME280;39827;49.652;18.770;2023-08-24T07:28:26;72056.19;;;-149.71;36.66
53916;BME280;39827;49.652;18.770;2023-08-24T07:30:51;72062.22;;;-149.71;36.23
53916;BME280;39827;49.652;18.770;2023-08-24T07:33:21;72098.34;;;-149.71;37.49
53916;BME280;39827;49.652;18.770;2023-08-24T07:35:47;72074.25;;;-149.71;36.54
53916;BME280;39827;49.652;18.770;2023-08-24T07:38:12;72074.25;;;-149.71;37.37
53916;BME280;39827;49.652;18.770;2023-08-24T07:40:38;71983.91;;;-149.71;36.70
53916;BME280;39827;49.652;18.770;2023-08-24T07:43:03;71949.75;;;-149.71;37.35
53916;BME280;39827;49.652;18.770;2023-08-24T07:45:29;71891.53;;;-149.71;35.66
53916;BME280;39827;49.652;18.770;2023-08-24T07:47:55;71915.63;;;-149.71;36.18
53916;BME280;39827;49.652;18.770;2023-08-24T07:50:20;71915.63;;;-149.71;35.28
53916;BME280;39827;49.652;18.770;2023-08-24T07:52:47;71921.66;;;-149.71;35.94
53916;BME280;39827;49.652;18.770;2023-08-24T07:55:13;71821.25;;;-149.71;33.97
53916;BME280;39827;49.652;18.770;2023-08-24T07:57:39;71839.31;;;-149.71;32.05
53916;BME280;39827;49.652;18.770;2023-08-24T08:00:05;71893.53;;;-149.71;33.36
53916;BME280;39827;49.652;18.770;2023-08-24T08:02:30;71839.31;;;-149.71;33.57
53916;BME280;39827;49.652;18.770;2023-08-24T08:04:58;71867.44;;;-149.71;32.61
53916;BME280;39827;49.652;18.770;2023-08-24T08:07:27;71881.50;;;-149.71;33.08
53916;BME280;39827;49.652;18.770;2023-08-24T08:09:52;71865.44;;;-149.71;33.20
53916;BME280;39827;49.652;18.770;2023-08-24T08:12:18;71829.28;;;-149.71;33.34
53916;BME280;39827;49.652;18.770;2023-08-24T08:14:43;71837.31;;;-149.71;33.33
53916;BME280;39827;49.652;18.770;2023-08-24T08:17:09;71835.31;;;-149.71;32.59
53916;BME280;39827;49.652;18.770;2023-08-24T08:19:34;71871.44;;;-149.71;33.21
53916;BME280;39827;49.652;18.770;2023-08-24T08:22:03;71851.38;;;-149.71;34.22
53916;BME280;39827;49.652;18.770;2023-08-24T08:24:28;71817.22;;;-149.71;32.78
53916;BME280;39827;49.652;18.770;2023-08-24T08:26:53;71829.28;;;-149.71;33.48
53916;BME280;39827;49.652;18.770;2023-08-24T08:29:19;71823.25;;;-149.71;32.33
53916;BME280;39827;49.652;18.770;2023-08-24T08:31:45;71805.19;;;-149.71;31.63
53916;BME280;39827;49.652;18.770;2023-08-24T08:34:10;71793.13;;;-149.71;32.08
53916;BME280;39827;49.652;18.770;2023-08-24T08:36:36;71865.44;;;-149.71;33.07
53916;BME280;39827;49.652;18.770;2023-08-24T08:39:01;71825.25;;;-149.71;32.24
53916;BME280;39827;49.652;18.770;2023-08-24T08:41:32;71791.13;;;-149.71;30.33
53916;BME280;39827;49.652;18.770;2023-08-24T08:43:59;71801.16;;;-149.71;31.09
53916;BME280;39827;49.652;18.770;2023-08-24T08:46:25;71769.03;;;-149.71;30.60
53916;BME280;39827;49.652;18.770;2023-08-24T08:48:52;71752.97;;;-149.71;31.86
53916;BME280;39827;49.652;18.770;2023-08-24T08:51:18;71734.91;;;-149.71;30.04
53916;BME280;39827;49.652;18.770;2023-08-24T08:53:43;71692.75;;;-149.71;31.58
53916;BME280;39827;49.652;18.770;2023-08-24T08:56:09;71807.19;;;-149.71;31.89
53916;BME280;39827;49.652;18.770;2023-08-24T08:58:34;71688.72;;;-149.71;32.01
53916;BME280;39827;49.652;18.770;2023-08-24T09:01:02;71672.66;;;-149.71;29.01
53916;BME280;39827;49.652;18.770;2023-08-24T09:03:29;71714.84;;;-149.71;30.19
53916;BME280;39827;49.652;18.770;2023-08-24T09:05:56;71710.81;;;-149.71;32.76
53916;BME280;39827;49.652;18.770;2023-08-24T09:08:22;71670.66;;;-149.71;31.80
53916;BME280;39827;49.652;18.770;2023-08-24T09:10:48;71628.50;;;-149.71;28.98
53916;BME280;39827;49.652;18.770;2023-08-24T09:13:13;71636.53;;;-149.71;28.42
53916;BME280;39827;49.652;18.770;2023-08-24T09:15:39;71652.59;;;-149.71;29.23
53916;BME280;39827;49.652;18.770;2023-08-24T09:18:04;71668.66;;;-149.71;29.47
53916;BME280;39827;49.652;18.770;2023-08-24T09:20:30;71652.59;;;-149.71;29.72
53916;BME280;39827;49.652;18.770;2023-08-24T09:22:56;71610.44;;;-149.71;29.31
53916;BME280;39827;49.652;18.770;2023-08-24T09:25:24;71600.38;;;-149.71;27.90
53916;BME280;39827;49.652;18.770;2023-08-24T09:28:08;71566.25;;;-149.71;28.34
53916;BME280;39827;49.652;18.770;2023-08-24T09:30:36;71566.25;;;-149.71;29.03
53916;BME280;39827;49.652;18.770;2023-08-24T09:33:03;71598.38;;;-149.71;28.57
53916;BME280;39827;49.652;18.770;2023-08-24T09:35:35;71532.13;;;-149.71;28.01
53916;BME280;39827;49.652;18.770;2023-08-24T09:38:15;71546.19;;;-149.71;28.25
53916;BME280;39827;49.652;18.770;2023-08-24T09:40:45;71534.13;;;-149.71;27.89
53916;BME280;39827;49.652;18.770;2023-08-24T09:43:13;71516.06;;;-149.71;28.91
53916;BME280;39827;49.652;18.770;2023-08-24T09:45:47;71524.09;;;-149.71;28.21
53916;BME280;39827;49.652;18.770;2023-08-24T09:48:13;71475.91;;;-149.71;27.06
53916;BME280;39827;49.652;18.770;2023-08-24T09:50:39;71473.91;;;-149.71;27.62
53916;BME280;39827;49.652;18.770;2023-08-24T09:53:07;71419.69;;;-149.71;27.54
53916;BME280;39827;49.652;18.770;2023-08-24T09:55:36;71475.91;;;-149.71;26.90
53916;BME280;39827;49.652;18.770;2023-08-24T09:58:03;71463.84;;;-149.71;26.53
53916;BME280;39827;49.652;18.770;2023-08-24T10:00:31;71451.81;;;-149.71;27.06
53916;BME280;39827;49.652;18.770;2023-08-24T10:02:57;71445.78;;;-149.71;29.12
53916;BME280;39827;49.652;18.770;2023-08-24T10:05:24;71465.88;;;-149.71;26.60
53916;BME280;39827;49.652;18.770;2023-08-24T10:07:52;71532.13;;;-149.71;29.48
53916;BME280;39827;49.652;18.770;2023-08-24T10:10:20;71451.81;;;-149.71;25.92
53916;BME280;39827;49.652;18.770;2023-08-24T10:12:50;71463.84;;;-149.71;28.04
53916;BME280;39827;49.652;18.770;2023-08-24T10:15:17;71532.13;;;-149.71;27.14
53916;BME280;39827;49.652;18.770;2023-08-24T10:17:44;71487.94;;;-149.71;27.54
53916;BME280;39827;49.652;18.770;2023-08-24T10:20:10;71556.22;;;-149.71;27.71
53916;BME280;39827;49.652;18.770;2023-08-24T10:22:37;71495.97;;;-149.71;28.28
53916;BME280;39827;49.652;18.770;2023-08-24T10:25:03;71504.00;;;-149.71;28.58
53916;BME280;39827;49.652;18.770;2023-08-24T10:27:29;71489.97;;;-149.71;28.25
53916;BME280;39827;49.652;18.770;2023-08-24T10:29:55;71429.72;;;-149.71;27.86
53916;BME280;39827;49.652;18.770;2023-08-24T10:32:22;71411.66;;;-149.71;27.76
53916;BME280;39827;49.652;18.770;2023-08-24T10:34:49;71395.59;;;-149.71;26.30
53916;BME280;39827;49.652;18.770;2023-08-24T10:37:15;71371.50;;;-149.71;26.30
53916;BME280;39827;49.652;18.770;2023-08-24T10:39:45;71355.44;;;-149.71;27.08
53916;BME280;39827;49.652;18.770;2023-08-24T10:42:12;71313.28;;;-149.71;27.76
53916;BME280;39827;49.652;18.770;2023-08-24T10:44:39;71283.16;;;-149.71;26.13
53916;BME280;39827;49.652;18.770;2023-08-24T10:47:15;71241.00;;;-149.71;24.51
53916;BME280;39827;49.652;18.770;2023-08-24T10:49:59;71415.66;;;-149.71;26.47
53916;BME280;39827;49.652;18.770;2023-08-24T10:54:55;71349.41;;;-149.71;25.43
53916;BME280;39827;49.652;18.770;2023-08-24T10:57:24;71285.19;;;-149.71;24.80
53916;BME280;39827;49.652;18.770;2023-08-24T11:02:25;71283.16;;;-149.71;25.44
53916;BME280;39827;49.652;18.770;2023-08-24T11:05:07;71303.25;;;-149.71;25.59
53916;BME280;39827;49.652;18.770;2023-08-24T11:10:20;71351.44;;;-149.71;26.07
53916;BME280;39827;49.652;18.770;2023-08-24T11:15:36;71351.44;;;-149.71;26.51
53916;BME280;39827;49.652;18.770;2023-08-24T11:20:36;71355.44;;;-149.71;25.38
53916;BME280;39827;49.652;18.770;2023-08-24T11:23:02;71451.81;;;-149.71;26.16
53916;BME280;39827;49.652;18.770;2023-08-24T11:25:28;71485.94;;;-149.71;26.90
53916;BME280;39827;49.652;18.770;2023-08-24T11:27:54;71383.56;;;-149.71;27.86
53916;BME280;39827;49.652;18.770;2023-08-24T11:30:19;71403.63;;;-149.71;25.77
53916;BME280;39827;49.652;18.770;2023-08-24T11:32:51;71393.59;;;-149.71;27.41
53916;BME280;39827;49.652;18.770;2023-08-24T11:35:18;71415.66;;;-149.71;27.19
53916;BME280;39827;49.652;18.770;2023-08-24T11:37:43;71383.56;;;-149.71;25.67
53916;BME280;39827;49.652;18.770;2023-08-24T11:40:16;71377.53;;;-149.71;25.91
53916;BME280;39827;49.652;18.770;2023-08-24T11:42:42;71425.72;;;-149.71;26.46
53916;BME280;39827;49.652;18.770;2023-08-24T11:45:11;71451.81;;;-149.71;28.01
53916;BME280;39827;49.652;18.770;2023-08-24T11:47:41;71409.66;;;-149.71;27.41
53916;BME280;39827;49.652;18.770;2023-08-24T11:50:08;71449.81;;;-149.71;26.59
53916;BME280;39827;49.652;18.770;2023-08-24T11:52:39;71399.63;;;-149.71;26.25
53916;BME280;39827;49.652;18.770;2023-08-24T11:55:05;71407.66;;;-149.71;26.86
53916;BME280;39827;49.652;18.770;2023-08-24T11:57:35;71435.75;;;-149.71;27.07
53916;BME280;39827;49.652;18.770;2023-08-24T12:00:03;71399.63;;;-149.71;25.09
53916;BME280;39827;49.652;18.770;2023-08-24T12:02:30;71477.91;;;-149.71;26.36
53916;BME280;39827;49.652;18.770;2023-08-24T12:04:56;71487.94;;;-149.71;25.80
53916;BME280;39827;49.652;18.770;2023-08-24T12:07:21;71528.09;;;-149.71;26.50
53916;BME280;39827;49.652;18.770;2023-08-24T12:09:47;71512.03;;;-149.71;27.63
53916;BME280;39827;49.652;18.770;2023-08-24T12:12:16;71534.13;;;-149.71;28.10
53916;BME280;39827;49.652;18.770;2023-08-24T12:14:46;71620.47;;;-149.71;27.36
53916;BME280;39827;49.652;18.770;2023-08-24T12:17:13;71620.47;;;-149.71;27.31
53916;BME280;39827;49.652;18.770;2023-08-24T12:19:58;71662.63;;;-149.71;27.92
53916;BME280;39827;49.652;18.770;2023-08-24T12:22:24;71588.34;;;-149.71;27.15
53916;BME280;39827;49.652;18.770;2023-08-24T12:24:49;71586.34;;;-149.71;28.34
53916;BME280;39827;49.652;18.770;2023-08-24T12:27:23;71608.41;;;-149.71;26.79
53916;BME280;39827;49.652;18.770;2023-08-24T12:29:49;71640.53;;;-149.71;29.45
53916;BME280;39827;49.652;18.770;2023-08-24T12:32:15;71678.69;;;-149.71;29.01
53916;BME280;39827;49.652;18.770;2023-08-24T12:34:41;71656.59;;;-149.71;31.10
53916;BME280;39827;49.652;18.770;2023-08-24T12:37:08;71694.75;;;-149.71;28.55
53916;BME280;39827;49.652;18.770;2023-08-24T12:39:36;71724.88;;;-149.71;26.16
53916;BME280;39827;49.652;18.770;2023-08-24T12:42:02;71761.00;;;-149.71;29.45
53916;BME280;39827;49.652;18.770;2023-08-24T12:44:28;71746.97;;;-149.71;28.95